Crescent, PA (15046)

7:06 PM EST on December 09, 2016 (GMT -0500)
Quaker Heights | | Change Station

Elev 1138 ft 40.57 °N, 80.21 °W | Updated 46 seconds ago

Overcast
Overcast
23.8 °F
Feels Like 24 °F
N
0.0
Wind Variable Wind from West

Today
High -- | Low -- °F
--% Chance of Precip.
Yesterday
High -- | Low -- °F
Precip. -- in
Pressure 30.47 in
Visibility 10.0 miles
Clouds Mostly Cloudy 2000 ft
Windchill 24 °F
Dew Point 18 °F
Humidity 78%
Rainfall 0.00 in
Snow Depth Not available.
7:33 AM 4:53 PM
Waxing Gibbous, 78% visible
METAR KPIT 092351Z 25009G17KT 10SM BKN020 M03/M08 A3039 RMK AO2 SLP317 T10331078 11022 21033 50009
Pressure 30.47 in
Visibility 10.0 miles
Clouds Mostly Cloudy 2000 ft
Windchill 24 °F
Dew Point 18 °F
Humidity 78%
Rainfall 0.00 in
Snow Depth Not available.
7:33 AM 4:53 PM
Waxing Gibbous, 78% visible
METAR KPIT 092351Z 25009G17KT 10SM BKN020 M03/M08 A3039 RMK AO2 SLP317 T10331078 11022 21033 50009

10-Day Weather Forecast

Almanac

Astronomy

Dec. 09, 2016 Rise Set
Actual Time
Civil Twilight
Nautical Twilight
Astronomical Twilight
Moon
Length of Visible Light
Length of Day
Tomorrow will be .
, % of the Moon is Illuminated

Today's Extremes

State Highs State Lows

Community

WunderPhotos

Upload Photos

1,956,534 photos uploaded!

WunderBlog® & News

Nearby

Air Quality

  Air Quality AQ Index Pollutant
Not available.

Snow Depth

Station Depth Elevation

Earthquake Activity

City Distance Mag. Time & Date
Minimum magnitude displayed is 2.5.

Coastal Water Temperatures

Place Temperature

Stations

Nearby Weather Stations

Station Location Temp. Windchill Dew Point Humidity Wind Precip. Elev Updated Type
                   

Watches & Warnings

There are currently no watches in effect.